createdAt,value
2022-12-04T00:01:27.129Z,9.73
2022-12-04T00:03:57.902Z,9.40
2022-12-04T00:06:26.173Z,9.57
2022-12-04T00:08:55.684Z,8.75
2022-12-04T00:11:26.673Z,8.60
2022-12-04T00:13:54.756Z,9.88
2022-12-04T00:16:24.999Z,8.95
2022-12-04T00:18:54.463Z,9.43
2022-12-04T00:21:25.033Z,7.93
2022-12-04T00:23:53.175Z,8.30
2022-12-04T00:26:23.712Z,7.85
2022-12-04T00:28:52.193Z,7.95
2022-12-04T00:31:22.594Z,8.07
2022-12-04T00:33:51.116Z,9.15
2022-12-04T00:36:21.204Z,7.63
2022-12-04T00:38:50.550Z,9.32
2022-12-04T00:41:20.431Z,8.65
2022-12-04T00:43:48.446Z,8.77
2022-12-04T00:46:17.019Z,7.90
2022-12-04T00:48:45.559Z,8.50
2022-12-04T00:51:15.446Z,8.75
2022-12-04T00:53:43.873Z,8.70
2022-12-04T00:56:15.687Z,9.27
2022-12-04T00:58:45.345Z,8.57
2022-12-04T01:01:15.463Z,8.90
2022-12-04T01:03:44.413Z,8.32
2022-12-04T01:06:19.805Z,8.18
2022-12-04T01:08:48.211Z,8.38
2022-12-04T01:11:18.388Z,7.43
2022-12-04T01:13:46.605Z,9.00
2022-12-04T01:16:19.018Z,8.82
2022-12-04T01:18:47.457Z,9.23
2022-12-04T01:21:17.374Z,9.32
2022-12-04T01:23:45.723Z,9.27
2022-12-04T01:26:15.669Z,8.93
2022-12-04T01:28:45.083Z,8.43
2022-12-04T01:31:15.855Z,8.43
2022-12-04T01:33:44.525Z,6.82
2022-12-04T01:36:14.243Z,8.32
2022-12-04T01:38:43.039Z,8.65
2022-12-04T01:41:12.964Z,8.07
2022-12-04T01:43:42.042Z,9.55
2022-12-04T01:46:12.251Z,8.73
2022-12-04T01:48:45.140Z,7.97
2022-12-04T01:51:18.572Z,8.40
2022-12-04T01:53:50.078Z,7.45
2022-12-04T01:56:19.112Z,9.18
2022-12-04T01:58:52.091Z,8.98
2022-12-04T02:01:21.745Z,9.15
2022-12-04T02:03:50.185Z,9.27
2022-12-04T02:06:18.203Z,8.88
2022-12-04T02:08:46.372Z,8.38
2022-12-04T02:11:24.679Z,9.18
2022-12-04T02:14:01.487Z,9.63
2022-12-04T02:16:39.381Z,9.50
2022-12-04T02:19:22.943Z,8.20
2022-12-04T02:21:55.520Z,8.80
2022-12-04T02:24:37.498Z,8.95
2022-12-04T02:27:09.360Z,8.43
2022-12-04T02:29:46.935Z,9.18
2022-12-04T02:32:20.571Z,8.90
2022-12-04T02:34:56.485Z,7.25
2022-12-04T02:37:30.886Z,8.10
2022-12-04T02:40:05.814Z,8.98
2022-12-04T02:42:41.872Z,8.25
2022-12-04T02:45:15.699Z,8.90
2022-12-04T02:47:45.228Z,8.77
2022-12-04T02:50:15.647Z,7.78
2022-12-04T02:52:48.072Z,7.07
2022-12-04T02:55:20.214Z,8.23
2022-12-04T02:57:52.134Z,7.47
2022-12-04T03:00:22.900Z,7.45
2022-12-04T03:02:56.402Z,7.25
2022-12-04T03:05:30.439Z,6.18
2022-12-04T03:08:01.818Z,7.35
2022-12-04T03:10:35.052Z,7.20
2022-12-04T03:13:08.191Z,7.43
2022-12-04T03:15:42.801Z,7.00
2022-12-04T03:18:15.802Z,7.57
2022-12-04T03:20:46.581Z,6.90
2022-12-04T03:23:21.909Z,6.97
2022-12-04T03:25:57.035Z,7.18
2022-12-04T03:28:30.053Z,8.00
2022-12-04T03:31:05.762Z,7.25
2022-12-04T03:33:39.101Z,7.07
2022-12-04T03:36:14.933Z,7.75
2022-12-04T03:38:47.373Z,7.60
2022-12-04T03:41:21.759Z,7.68
2022-12-04T03:43:54.521Z,7.85
2022-12-04T03:46:29.029Z,7.20
2022-12-04T03:49:02.225Z,7.18
2022-12-04T03:51:35.121Z,6.28
2022-12-04T03:54:07.711Z,6.47
2022-12-04T03:56:39.601Z,6.25
2022-12-04T03:59:12.709Z,6.25
2022-12-04T04:01:47.316Z,6.25
2022-12-04T04:04:22.758Z,7.40
2022-12-04T04:06:54.830Z,7.30
2022-12-04T04:09:25.846Z,6.22
2022-12-04T04:11:57.997Z,6.35
2022-12-04T04:14:47.094Z,6.72
2022-12-04T04:17:38.887Z,6.28
2022-12-04T04:20:29.069Z,6.32
2022-12-04T04:23:19.081Z,5.97
2022-12-04T04:25:48.555Z,6.30
2022-12-04T04:28:34.129Z,5.43
2022-12-04T04:31:17.699Z,5.97
2022-12-04T04:33:56.985Z,6.15
2022-12-04T04:36:32.539Z,5.93
2022-12-04T04:39:04.912Z,6.03
2022-12-04T04:41:39.572Z,5.78
2022-12-04T04:44:16.153Z,6.43
2022-12-04T04:46:49.566Z,6.78
2022-12-04T04:49:21.016Z,5.53
2022-12-04T04:51:49.251Z,5.63
2022-12-04T04:54:18.737Z,6.38
2022-12-04T04:56:48.310Z,5.88
2022-12-04T04:59:16.607Z,6.57
2022-12-04T05:01:46.663Z,5.82
2022-12-04T05:04:15.062Z,6.00
2022-12-04T05:06:44.345Z,5.88
2022-12-04T05:09:12.309Z,6.10
2022-12-04T05:11:40.292Z,6.32
2022-12-04T05:14:09.481Z,4.82
2022-12-04T05:16:37.631Z,6.15
2022-12-04T05:19:23.244Z,6.38
2022-12-04T05:21:52.546Z,5.40
2022-12-04T05:24:20.532Z,5.40
2022-12-04T05:26:48.481Z,4.82
2022-12-04T05:29:16.421Z,6.13
2022-12-04T05:31:44.421Z,5.03
2022-12-04T05:34:12.441Z,5.95
2022-12-04T05:36:40.633Z,5.85
2022-12-04T05:39:09.891Z,5.97
2022-12-04T05:41:37.868Z,6.07
2022-12-04T05:44:05.941Z,5.03
2022-12-04T05:46:34.056Z,6.00
2022-12-04T05:49:02.053Z,5.57
2022-12-04T05:51:30.042Z,6.25
2022-12-04T05:53:57.990Z,6.32
2022-12-04T05:56:27.281Z,5.97
2022-12-04T05:58:55.251Z,5.55
2022-12-04T06:01:25.562Z,5.35
2022-12-04T06:03:53.508Z,5.38
2022-12-04T06:06:23.835Z,5.38
2022-12-04T06:08:53.235Z,5.18
2022-12-04T06:11:23.657Z,6.05
2022-12-04T06:13:53.265Z,5.50
2022-12-04T06:16:23.737Z,5.03
2022-12-04T06:18:52.776Z,5.82
2022-12-04T06:21:22.638Z,5.65
2022-12-04T06:23:51.428Z,6.15
2022-12-04T06:26:19.762Z,5.88
2022-12-04T06:28:47.762Z,5.97
2022-12-04T06:31:18.949Z,5.30
2022-12-04T06:33:48.102Z,5.20
2022-12-04T06:36:18.195Z,6.68
2022-12-04T06:38:46.654Z,5.53
2022-12-04T06:41:16.868Z,5.97
2022-12-04T06:43:45.475Z,6.15
2022-12-04T06:46:15.294Z,5.05
2022-12-04T06:48:44.695Z,4.72
2022-12-04T06:51:14.120Z,5.38
2022-12-04T06:53:42.792Z,5.45
2022-12-04T06:56:14.237Z,5.63
2022-12-04T06:58:42.227Z,4.93
2022-12-04T07:01:12.139Z,5.45
2022-12-04T07:03:43.601Z,5.82
2022-12-04T07:06:19.477Z,5.57
2022-12-04T07:08:49.383Z,5.55
2022-12-04T07:11:18.026Z,4.82
2022-12-04T07:13:46.121Z,6.38
2022-12-04T07:16:16.410Z,5.60
2022-12-04T07:18:44.593Z,5.18
2022-12-04T07:21:16.751Z,5.53
2022-12-04T07:23:46.967Z,5.97
2022-12-04T07:26:15.412Z,5.78
2022-12-04T07:28:45.110Z,5.53
2022-12-04T07:31:16.095Z,5.45
2022-12-04T07:33:45.405Z,5.75
2022-12-04T07:36:18.011Z,5.25
2022-12-04T07:38:47.659Z,4.90
2022-12-04T07:41:16.400Z,5.38
2022-12-04T07:43:44.742Z,5.18
2022-12-04T07:46:14.639Z,4.97
2022-12-04T07:48:42.758Z,6.15
2022-12-04T07:51:14.054Z,5.28
2022-12-04T07:53:42.318Z,5.63
2022-12-04T07:56:13.084Z,5.78
2022-12-04T07:58:41.587Z,5.78
2022-12-04T08:01:12.288Z,5.18
2022-12-04T08:03:46.682Z,5.38
2022-12-04T08:06:17.419Z,5.10
2022-12-04T08:08:46.549Z,6.13
2022-12-04T08:11:18.602Z,5.40
2022-12-04T08:13:46.866Z,5.72
2022-12-04T08:16:15.915Z,5.60
2022-12-04T08:18:48.370Z,4.72
2022-12-04T08:21:19.229Z,5.32
2022-12-04T08:23:47.778Z,5.57
2022-12-04T08:26:20.461Z,6.35
2022-12-04T08:28:48.841Z,5.93
2022-12-04T08:31:19.814Z,5.85
2022-12-04T08:33:49.734Z,5.47
2022-12-04T08:36:20.178Z,6.65
2022-12-04T08:38:48.660Z,5.22
2022-12-04T08:41:20.591Z,5.35
2022-12-04T08:43:48.638Z,5.95
2022-12-04T08:46:19.437Z,7.80
2022-12-04T08:48:47.926Z,6.70
2022-12-04T08:51:17.900Z,6.90
2022-12-04T08:53:46.658Z,6.53
2022-12-04T08:56:15.325Z,5.53
2022-12-04T08:58:44.609Z,5.72
2022-12-04T09:01:14.595Z,6.05
2022-12-04T09:03:42.974Z,5.57
2022-12-04T09:06:13.073Z,6.05
2022-12-04T09:08:41.681Z,6.90
2022-12-04T09:11:14.273Z,6.13
2022-12-04T09:13:44.545Z,5.35
2022-12-04T09:16:14.866Z,6.10
2022-12-04T09:18:43.467Z,6.20
2022-12-04T09:21:13.845Z,6.45
2022-12-04T09:23:42.778Z,6.00
2022-12-04T09:26:20.074Z,6.95
2022-12-04T09:28:49.933Z,6.35
2022-12-04T09:31:18.519Z,6.15
2022-12-04T09:33:47.316Z,5.70
2022-12-04T09:36:16.905Z,6.28
2022-12-04T09:38:46.014Z,7.05
2022-12-04T09:41:37.168Z,6.03
2022-12-04T09:44:11.947Z,6.70
2022-12-04T09:46:45.681Z,6.32
2022-12-04T09:49:18.534Z,7.35
2022-12-04T09:51:47.453Z,6.53
2022-12-04T09:54:22.653Z,6.30
2022-12-04T09:56:56.557Z,6.57
2022-12-04T09:59:28.228Z,6.60
2022-12-04T10:02:03.161Z,6.13
2022-12-04T10:04:31.929Z,6.43
2022-12-04T10:07:08.732Z,7.00
2022-12-04T10:09:49.043Z,6.60
2022-12-04T10:12:24.272Z,6.72
2022-12-04T10:15:03.535Z,6.20
2022-12-04T10:18:00.366Z,6.43
2022-12-04T10:20:53.409Z,6.00
2022-12-04T10:23:35.339Z,6.38
2022-12-04T10:26:06.285Z,7.03
2022-12-04T10:28:38.991Z,6.35
2022-12-04T10:31:14.969Z,7.28
2022-12-04T10:33:47.304Z,5.65
2022-12-04T10:36:18.752Z,7.07
2022-12-04T10:38:50.512Z,7.43
2022-12-04T10:41:25.552Z,7.60
2022-12-04T10:43:53.666Z,7.18
2022-12-04T10:46:26.713Z,7.10
2022-12-04T10:49:01.795Z,6.47
2022-12-04T10:51:34.641Z,7.18
2022-12-04T10:54:02.842Z,7.15
2022-12-04T10:56:31.058Z,7.13
2022-12-04T10:59:01.022Z,7.18
2022-12-04T11:01:32.295Z,6.75
2022-12-04T11:04:03.374Z,6.05
2022-12-04T11:06:32.320Z,7.70
2022-12-04T11:09:02.453Z,6.60
2022-12-04T11:11:33.520Z,7.25
2022-12-04T11:14:03.480Z,7.90
2022-12-04T11:16:39.587Z,12.23
2022-12-04T11:19:22.164Z,8.68
2022-12-04T11:21:52.777Z,7.70
2022-12-04T11:24:24.396Z,7.10
2022-12-04T11:26:53.115Z,10.80
2022-12-04T11:29:27.475Z,7.60
2022-12-04T11:32:01.442Z,8.10
2022-12-04T11:34:37.100Z,6.82
2022-12-04T11:37:07.903Z,7.35
2022-12-04T11:39:40.352Z,6.97
2022-12-04T11:42:18.269Z,7.70
2022-12-04T11:44:53.194Z,7.95
2022-12-04T11:47:26.089Z,7.70
2022-12-04T11:50:06.460Z,6.97
2022-12-04T11:52:49.491Z,7.13
2022-12-04T11:55:29.097Z,8.02
2022-12-04T11:58:16.678Z,7.07
2022-12-04T12:00:50.375Z,8.70
2022-12-04T12:03:26.095Z,8.13
2022-12-04T12:06:17.276Z,8.02
2022-12-04T12:09:00.482Z,8.05
2022-12-04T12:11:34.367Z,8.93
2022-12-04T12:14:10.412Z,7.30
2022-12-04T12:16:55.130Z,7.20
2022-12-04T12:19:47.754Z,8.00
2022-12-04T12:22:26.730Z,7.88
2022-12-04T12:25:04.571Z,7.72
2022-12-04T12:27:48.521Z,8.02
2022-12-04T12:30:17.734Z,7.75
2022-12-04T12:33:05.945Z,8.75
2022-12-04T12:35:40.644Z,7.80
2022-12-04T12:38:12.797Z,9.32
2022-12-04T12:40:43.976Z,7.93
2022-12-04T12:43:16.996Z,7.03
2022-12-04T12:45:52.612Z,8.60
2022-12-04T12:48:31.384Z,7.53
2022-12-04T12:51:29.227Z,6.68
2022-12-04T12:53:56.692Z,8.30
2022-12-04T12:56:46.115Z,8.88
2022-12-04T12:59:22.228Z,8.90
2022-12-04T13:02:00.556Z,8.85
2022-12-04T13:04:35.994Z,9.35
2022-12-04T13:07:27.450Z,9.40
2022-12-04T13:10:01.680Z,9.60
2022-12-04T13:12:30.443Z,9.15
2022-12-04T13:14:59.043Z,8.25
2022-12-04T13:17:34.106Z,7.93
2022-12-04T13:20:10.277Z,8.02
2022-12-04T13:22:50.872Z,10.13
2022-12-04T13:25:44.615Z,8.65
2022-12-04T13:28:28.345Z,8.50
2022-12-04T13:31:04.401Z,8.75
2022-12-04T13:34:05.206Z,8.13
2022-12-04T13:36:53.301Z,9.23
2022-12-04T13:39:37.379Z,8.63
2022-12-04T13:42:07.528Z,7.60
2022-12-04T13:44:36.490Z,7.53
2022-12-04T13:47:06.674Z,7.72
2022-12-04T13:49:36.396Z,8.10
2022-12-04T13:52:07.447Z,8.40
2022-12-04T13:54:38.016Z,9.73
2022-12-04T13:57:20.918Z,8.65
2022-12-04T13:59:50.287Z,7.75
2022-12-04T14:02:29.722Z,8.85
2022-12-04T14:05:00.978Z,7.28
2022-12-04T14:07:34.365Z,8.35
2022-12-04T14:10:07.197Z,8.05
2022-12-04T14:12:38.816Z,9.50
2022-12-04T14:15:08.669Z,9.23
2022-12-04T14:17:39.271Z,8.55
2022-12-04T14:20:22.524Z,8.23
2022-12-04T14:22:50.546Z,7.57
2022-12-04T14:25:38.943Z,8.98
2022-12-04T14:28:26.730Z,7.43
2022-12-04T14:31:14.443Z,8.75
2022-12-04T14:33:46.389Z,7.80
2022-12-04T14:36:20.051Z,8.10
2022-12-04T14:38:51.741Z,8.60
2022-12-04T14:41:27.827Z,7.13
2022-12-04T14:43:57.375Z,7.47
2022-12-04T14:46:33.127Z,8.30
2022-12-04T14:49:15.902Z,7.72
2022-12-04T14:51:49.301Z,8.35
2022-12-04T14:54:32.455Z,7.82
2022-12-04T14:57:19.822Z,9.02
2022-12-04T14:59:50.048Z,8.60
2022-12-04T15:02:20.535Z,8.45
2022-12-04T15:04:51.002Z,8.73
2022-12-04T15:07:21.245Z,8.35
2022-12-04T15:10:11.628Z,7.38
2022-12-04T15:12:49.533Z,8.38
2022-12-04T15:15:25.009Z,7.85
2022-12-04T15:18:00.963Z,7.53
2022-12-04T15:20:33.408Z,7.20
2022-12-04T15:23:05.917Z,8.45
2022-12-04T15:25:41.081Z,7.60
2022-12-04T15:28:16.351Z,7.47
2022-12-04T15:30:48.836Z,7.75
2022-12-04T15:33:21.684Z,9.23
2022-12-04T15:35:53.588Z,10.07
2022-12-04T15:38:22.082Z,8.93
2022-12-04T15:40:57.738Z,7.43
2022-12-04T15:43:30.693Z,7.88
2022-12-04T15:45:59.483Z,8.68
2022-12-04T15:48:28.933Z,7.80
2022-12-04T15:50:59.289Z,8.25
2022-12-04T15:53:30.410Z,6.55
2022-12-04T15:56:02.855Z,7.13
2022-12-04T15:58:34.472Z,7.47
2022-12-04T16:01:05.105Z,7.70
2022-12-04T16:03:37.056Z,7.13
2022-12-04T16:06:18.898Z,7.20
2022-12-04T16:08:48.652Z,8.52
2022-12-04T16:11:32.597Z,14.13
2022-12-04T16:14:15.813Z,10.60
2022-12-04T16:16:46.240Z,9.50
2022-12-04T16:19:18.535Z,9.05
2022-12-04T16:21:46.646Z,8.10
2022-12-04T16:24:20.344Z,7.10
2022-12-04T16:26:50.656Z,7.68
2022-12-04T16:29:20.077Z,7.85
2022-12-04T16:31:48.325Z,11.32
2022-12-04T16:34:16.927Z,9.18
2022-12-04T16:36:44.995Z,8.60
2022-12-04T16:39:12.923Z,7.88
2022-12-04T16:41:41.645Z,9.25
2022-12-04T16:44:14.838Z,8.52
2022-12-04T16:46:46.757Z,8.35
2022-12-04T16:49:16.856Z,8.05
2022-12-04T16:51:49.499Z,6.97
2022-12-04T16:54:18.102Z,9.30
2022-12-04T16:56:46.079Z,7.30
2022-12-04T16:59:14.098Z,8.05
2022-12-04T17:01:47.496Z,8.48
2022-12-04T17:04:16.668Z,11.27
2022-12-04T17:06:45.302Z,7.60
2022-12-04T17:09:14.800Z,9.80
2022-12-04T17:11:43.090Z,9.00
2022-12-04T17:14:11.449Z,10.23
2022-12-04T17:16:42.388Z,11.70
2022-12-04T17:19:12.453Z,9.20
2022-12-04T17:21:41.636Z,9.77
2022-12-04T17:24:09.934Z,7.90
2022-12-04T17:26:39.146Z,8.70
2022-12-04T17:29:07.152Z,6.15
2022-12-04T17:31:37.213Z,8.07
2022-12-04T17:34:07.590Z,8.35
2022-12-04T17:36:36.949Z,7.78
2022-12-04T17:39:07.230Z,7.82
2022-12-04T17:41:35.583Z,8.73
2022-12-04T17:44:04.265Z,8.18
2022-12-04T17:46:32.544Z,8.10
2022-12-04T17:49:06.575Z,6.95
2022-12-04T17:51:36.977Z,8.15
2022-12-04T17:54:05.614Z,7.38
2022-12-04T17:56:33.624Z,7.40
2022-12-04T17:59:01.553Z,8.02
2022-12-04T18:01:31.462Z,6.88
2022-12-04T18:04:01.797Z,7.57
2022-12-04T18:06:32.382Z,6.85
2022-12-04T18:09:02.018Z,7.80
2022-12-04T18:11:32.091Z,6.75
2022-12-04T18:14:03.151Z,7.13
2022-12-04T18:16:36.969Z,7.68
2022-12-04T18:19:05.724Z,7.13
2022-12-04T18:21:34.970Z,6.40
2022-12-04T18:24:05.959Z,6.65
2022-12-04T18:26:35.894Z,6.20
2022-12-04T18:29:04.757Z,7.78
2022-12-04T18:31:33.552Z,8.20
2022-12-04T18:34:02.041Z,6.72
2022-12-04T18:36:33.235Z,7.65
2022-12-04T18:39:05.610Z,6.78
2022-12-04T18:41:34.203Z,7.53
2022-12-04T18:44:02.953Z,6.97
2022-12-04T18:46:31.245Z,7.32
2022-12-04T18:49:02.256Z,7.53
2022-12-04T18:51:31.921Z,6.88
2022-12-04T18:54:02.189Z,6.53
2022-12-04T18:56:33.642Z,7.40
2022-12-04T18:59:04.865Z,8.18
2022-12-04T19:01:33.171Z,8.48
2022-12-04T19:04:03.990Z,7.65
2022-12-04T19:06:33.503Z,9.20
2022-12-04T19:09:04.284Z,7.22
2022-12-04T19:11:33.823Z,8.07
2022-12-04T19:14:08.283Z,7.82
2022-12-04T19:16:40.769Z,7.47
2022-12-04T19:19:08.988Z,8.18
2022-12-04T19:21:37.225Z,7.15
2022-12-04T19:24:05.994Z,7.10
2022-12-04T19:26:37.599Z,7.88
2022-12-04T19:29:06.979Z,8.52
2022-12-04T19:31:37.686Z,7.78
2022-12-04T19:34:06.864Z,7.72
2022-12-04T19:36:35.556Z,7.43
2022-12-04T19:39:05.573Z,8.63
2022-12-04T19:41:37.064Z,7.65
2022-12-04T19:44:26.415Z,8.32
2022-12-04T19:46:53.875Z,7.63
2022-12-04T19:49:22.071Z,7.63
2022-12-04T19:51:51.770Z,6.88
2022-12-04T19:54:20.945Z,6.53
2022-12-04T19:56:52.595Z,6.97
2022-12-04T19:59:21.155Z,6.22
2022-12-04T20:01:49.155Z,7.45
2022-12-04T20:04:19.497Z,6.95
2022-12-04T20:06:48.383Z,7.03
2022-12-04T20:09:19.520Z,7.03
2022-12-04T20:11:47.905Z,7.57
2022-12-04T20:14:17.306Z,6.78
2022-12-04T20:16:46.241Z,6.63
2022-12-04T20:19:16.110Z,7.30
2022-12-04T20:21:44.652Z,5.68
2022-12-04T20:24:14.708Z,6.95
2022-12-04T20:26:45.164Z,6.95
2022-12-04T20:29:19.034Z,6.57
2022-12-04T20:31:47.557Z,7.30
2022-12-04T20:34:18.049Z,6.28
2022-12-04T20:36:48.823Z,7.40
2022-12-04T20:39:18.139Z,7.20
2022-12-04T20:41:46.348Z,7.25
2022-12-04T20:44:17.809Z,6.43
2022-12-04T20:46:46.979Z,7.65
2022-12-04T20:49:21.609Z,8.77
2022-12-04T20:51:51.808Z,7.93
2022-12-04T20:54:21.509Z,7.72
2022-12-04T20:56:52.702Z,7.10
2022-12-04T20:59:23.813Z,6.57
2022-12-04T21:01:52.703Z,7.65
2022-12-04T21:04:21.136Z,6.60
2022-12-04T21:06:49.135Z,6.47
2022-12-04T21:09:19.538Z,7.15
2022-12-04T21:11:50.050Z,6.55
2022-12-04T21:14:37.293Z,7.32
2022-12-04T21:17:12.928Z,6.35
2022-12-04T21:19:43.122Z,7.32
2022-12-04T21:22:11.098Z,7.07
2022-12-04T21:24:39.237Z,6.88
2022-12-04T21:27:09.022Z,6.53
2022-12-04T21:29:37.742Z,6.30
2022-12-04T21:32:07.042Z,5.78
2022-12-04T21:34:36.569Z,8.00
2022-12-04T21:37:04.597Z,7.07
2022-12-04T21:39:32.801Z,7.03
2022-12-04T21:42:18.145Z,7.75
2022-12-04T21:44:46.676Z,7.13
2022-12-04T21:47:14.626Z,6.63
2022-12-04T21:49:43.980Z,6.13
2022-12-04T21:52:14.060Z,7.10
2022-12-04T21:54:42.033Z,7.07
2022-12-04T21:57:09.956Z,6.40
2022-12-04T21:59:38.372Z,7.85
2022-12-04T22:02:06.423Z,6.50
2022-12-04T22:04:34.509Z,7.03
2022-12-04T22:07:03.964Z,6.55
2022-12-04T22:09:31.938Z,7.80
2022-12-04T22:12:00.190Z,6.28
2022-12-04T22:14:28.188Z,7.00
2022-12-04T22:16:56.198Z,8.05
2022-12-04T22:19:24.198Z,6.22
2022-12-04T22:21:52.129Z,6.68
2022-12-04T22:24:22.600Z,6.78
2022-12-04T22:26:50.630Z,7.20
2022-12-04T22:29:48.584Z,6.88
2022-12-04T22:32:06.601Z,7.20
2022-12-04T22:34:34.762Z,6.53
2022-12-04T22:37:02.723Z,7.15
2022-12-04T22:39:33.489Z,7.18
2022-12-04T22:42:01.459Z,7.32
2022-12-04T22:44:29.389Z,5.95
2022-12-04T22:47:01.025Z,5.95
2022-12-04T22:49:28.963Z,6.70
2022-12-04T22:51:59.393Z,7.07
2022-12-04T22:54:27.346Z,6.85
2022-12-04T22:56:57.183Z,6.57
2022-12-04T22:59:25.236Z,7.57
2022-12-04T23:01:53.380Z,6.88
2022-12-04T23:04:21.379Z,6.47
2022-12-04T23:06:49.453Z,6.28
2022-12-04T23:09:18.841Z,7.20
2022-12-04T23:11:51.024Z,6.43
2022-12-04T23:14:20.655Z,5.50
2022-12-04T23:16:48.982Z,6.10
2022-12-04T23:19:19.748Z,6.03
2022-12-04T23:21:52.065Z,6.82
2022-12-04T23:24:24.633Z,5.88
2022-12-04T23:26:52.626Z,6.13
2022-12-04T23:29:52.847Z,6.20
2022-12-04T23:32:09.888Z,5.95
2022-12-04T23:34:37.889Z,6.45
2022-12-04T23:37:05.937Z,6.13
2022-12-04T23:39:35.988Z,7.03
2022-12-04T23:42:04.043Z,5.78
2022-12-04T23:44:33.542Z,6.28
2022-12-04T23:47:01.676Z,6.25
2022-12-04T23:49:29.832Z,6.53
2022-12-04T23:51:57.761Z,6.07
2022-12-04T23:54:25.747Z,6.63
2022-12-04T23:56:53.702Z,6.18
2022-12-04T23:59:21.948Z,6.25
